aviador You're here:

WBKS Decoded Metar

SANDAKAN/KALIMAN in _UNIDENTIFIED
Report Time2018-01-19 10:00:00
UTC Time2018-01-19 11:09:54
Flight Rules Old
Wind030° at 05 kt
W.Decomp.*RWY 08: 3.2 kt HW 3.8 kt LCW
W.Rank030° ranks 24
Current wind is below 030° avg. (5.3)
Visibility9999 m
Phenomena:N/A
Clouds:Few 016 Hf
Broken 280 Hf
Expected CloudBase > 1,600 ft AGL from Temp-Dew spread
Ceiling28,000 ft
Temp28°C (ISA +13)
Dew Point24°C (79% RH)
Heat Index31.9°C
QNH1006 hPa
Density Alt2,175 ft
Elevation43 ft
Report Wrong Elevation
Raw Report
METAR WBKS 191000Z 03005KT 340V060 9999 FEW016 BKN280 28/24 Q1006=

Extra information for WBKS:More info

Metar Taf Metar & Taf Last 4 Metars F.Rules Stats Wind Profile Meteogram Temp Stats Airport Information Weather charts Add Link Nearby VenuesMetar ALERT Operation Metar Decoded Social comments